Time;durP1;ratioP1;P1;durP2;ratioP2;P2;SDS_P1;SDS_P2;PMS_P1;PMS_P2;Temp;Humidity;BMP_temperature;BMP_pressure;BME280_temperature;BME280_humidity;BME280_pressure;Samples;Min_cycle;Max_cycle;Signal;HPM_P1;HPM_P2
2021/01/13 00:01:30;;;;;;;0.40;0.40;;;;;;;0.29;88.45;98497.78;5065080;28;20021;-70
2021/01/13 00:03:56;;;;;;;0.40;0.40;;;;;;;0.40;88.58;98516.50;5063231;28;20021;-70
2021/01/13 00:06:21;;;;;;;0.40;0.40;;;;;;;0.44;88.26;98528.47;5063217;28;20532;-70
2021/01/13 00:08:46;;;;;;;0.40;0.40;;;;;;;0.46;88.60;98526.75;5080237;28;20056;-69
2021/01/13 00:11:14;;;;;;;0.30;0.30;;;;;;;0.44;88.55;98527.59;5063904;28;20021;-68
2021/01/13 00:13:40;;;;;;;0.40;0.40;;;;;;;0.40;88.46;98521.63;5064772;28;20740;-69
2021/01/13 00:16:05;;;;;;;0.40;0.40;;;;;;;0.47;88.32;98540.38;5064541;28;20029;-70
2021/01/13 00:18:30;;;;;;;0.40;0.40;;;;;;;0.44;88.30;98538.66;5064393;28;20040;-69
2021/01/13 00:20:56;;;;;;;0.40;0.40;;;;;;;0.45;88.38;98542.06;5064816;28;20064;-70
2021/01/13 00:23:21;;;;;;;0.40;0.40;;;;;;;0.30;88.30;98523.31;5064590;28;20021;-69
2021/01/13 00:25:46;;;;;;;0.30;0.30;;;;;;;0.20;88.31;98514.78;5064411;28;20469;-70
2021/01/13 00:28:12;;;;;;;0.40;0.40;;;;;;;0.27;88.24;98528.41;5064245;28;20028;-71
2021/01/13 00:30:37;;;;;;;0.40;0.40;;;;;;;0.32;88.28;98543.75;5064363;28;20389;-70
2021/01/13 00:33:06;;;;;;;0.40;0.40;;;;;;;0.26;88.18;98541.19;5063985;28;20075;-70
2021/01/13 00:35:32;;;;;;;0.40;0.40;;;;;;;0.23;88.01;98540.31;5063957;28;20075;-69
2021/01/13 00:37:57;;;;;;;0.30;0.30;;;;;;;0.20;88.18;98534.34;5062695;28;20044;-70
2021/01/13 00:40:23;;;;;;;0.30;0.30;;;;;;;0.23;88.02;98545.41;5064050;28;20100;-70
2021/01/13 00:42:49;;;;;;;0.40;0.40;;;;;;;0.23;87.99;98547.09;5064104;28;20367;-69
2021/01/13 00:45:16;;;;;;;0.32;0.32;;;;;;;0.18;87.96;98544.53;5063845;28;20025;-70
2021/01/13 00:47:42;;;;;;;0.40;0.40;;;;;;;0.18;87.87;98554.75;5079124;28;20474;-75
2021/01/13 00:50:11;;;;;;;0.40;0.40;;;;;;;0.16;87.88;98555.59;5063868;28;20035;-70
2021/01/13 00:52:37;;;;;;;0.40;0.40;;;;;;;0.15;87.87;98562.38;5062534;28;20028;-70
2021/01/13 00:55:03;;;;;;;0.40;0.40;;;;;;;0.08;87.91;98551.31;5063690;28;20057;-69
2021/01/13 00:57:29;;;;;;;0.30;0.30;;;;;;;0.14;87.75;98563.25;5063731;28;20025;-70
2021/01/13 00:59:54;;;;;;;0.40;0.40;;;;;;;0.13;88.00;98568.34;5063947;28;20017;-70
2021/01/13 01:02:21;;;;;;;0.40;0.40;;;;;;;0.05;87.69;98556.38;5062052;28;20088;-69
2021/01/13 01:04:46;;;;;;;0.40;0.40;;;;;;;0.07;87.72;98558.94;5063550;28;20013;-70
2021/01/13 01:07:12;;;;;;;0.40;0.40;;;;;;;0.01;87.58;98564.03;5063687;28;20021;-70
2021/01/13 01:09:37;;;;;;;0.30;0.30;;;;;;;-0.22;87.65;98532.47;5063247;28;20035;-70
2021/01/13 01:12:03;;;;;;;0.35;0.35;;;;;;;-0.14;87.73;98545.25;5063143;28;20021;-70
2021/01/13 01:14:28;;;;;;;0.40;0.40;;;;;;;-0.06;87.85;98555.47;5063506;28;20036;-70
2021/01/13 01:16:54;;;;;;;0.40;0.40;;;;;;;-0.07;87.91;98554.66;5063419;28;20286;-71
2021/01/13 01:19:21;;;;;;;0.40;0.40;;;;;;;-0.16;87.88;98532.47;5062568;28;20025;-70
2021/01/13 01:21:46;;;;;;;0.40;0.40;;;;;;;-0.06;87.96;98543.59;5063390;28;20218;-70
2021/01/13 01:24:12;;;;;;;0.40;0.40;;;;;;;-0.07;87.93;98547.00;5063308;28;20051;-71
2021/01/13 01:26:43;;;;;;;0.40;0.40;;;;;;;-0.06;87.90;98548.69;5061785;28;20057;-69
2021/01/13 01:29:08;;;;;;;0.40;0.40;;;;;;;-0.06;87.88;98548.69;5063287;28;20029;-69
2021/01/13 01:31:34;;;;;;;0.40;0.40;;;;;;;-0.13;88.04;98544.41;5063301;28;20071;-69
2021/01/13 01:33:59;;;;;;;0.40;0.40;;;;;;;-0.02;88.03;98562.31;5063149;28;20028;-70
2021/01/13 01:36:24;;;;;;;0.30;0.30;;;;;;;-0.04;88.07;98566.56;5063078;28;20029;-69
2021/01/13 01:38:50;;;;;;;0.40;0.40;;;;;;;-0.11;87.82;98567.38;5063150;28;20080;-70
2021/01/13 01:41:15;;;;;;;0.40;0.40;;;;;;;-0.24;87.80;98561.34;5062148;28;20344;-69
2021/01/13 01:43:45;;;;;;;0.40;0.40;;;;;;;-0.31;87.99;98574.06;5063089;28;20025;-70
2021/01/13 01:46:11;;;;;;;0.38;0.38;;;;;;;-0.38;87.86;98567.22;5062913;28;20017;-69
2021/01/13 01:48:46;;;;;;;0.40;0.40;;;;;;;-0.43;88.07;98571.44;5061368;28;20039;-70
2021/01/13 01:51:22;;;;;;;0.40;0.40;;;;;;;-0.48;88.07;98561.22;5063004;28;20289;-70
2021/01/13 01:54:10;;;;;;;0.40;0.40;;;;;;;-0.45;88.33;98562.94;5062904;28;20052;-68
2021/01/13 01:56:37;;;;;;;0.40;0.40;;;;;;;-0.53;88.35;98548.41;5062961;28;20025;-70
2021/01/13 01:59:08;;;;;;;0.40;0.40;;;;;;;-0.45;88.59;98565.47;5078334;28;20017;-70
2021/01/13 02:01:42;;;;;;;0.50;0.50;;;;;;;-0.43;88.67;98574.00;5063055;28;20021;-70
2021/01/13 02:04:12;;;;;;;0.40;0.40;;;;;;;-0.43;88.83;98567.19;5062749;28;20083;-70
2021/01/13 02:06:49;;;;;;;0.40;0.40;;;;;;;-0.38;88.86;98572.31;5062815;28;20032;-70
2021/01/13 02:09:15;;;;;;;0.35;0.35;;;;;;;-0.43;89.07;98554.44;5078414;28;20341;-69
2021/01/13 02:11:51;;;;;;;0.40;0.40;;;;;;;-0.41;89.14;98555.31;5062746;28;20035;-69
2021/01/13 02:14:16;;;;;;;0.40;0.40;;;;;;;-0.41;89.11;98551.91;5062731;28;20016;-70
2021/01/13 02:16:50;;;;;;;0.38;0.38;;;;;;;-0.24;89.06;98576.66;5061366;28;20492;-70
2021/01/13 02:19:37;;;;;;;0.40;0.40;;;;;;;-0.23;89.24;98573.25;5062511;28;20025;-70
2021/01/13 02:22:03;;;;;;;0.40;0.40;;;;;;;-0.27;89.15;98580.88;5061386;28;20044;-71
2021/01/13 02:24:41;;;;;;;0.40;0.40;;;;;;;-0.30;89.15;98578.31;5062935;28;20033;-70
2021/01/13 02:27:34;;;;;;;0.40;0.40;;;;;;;-0.33;89.02;98587.63;5078114;28;20025;-71
2021/01/13 02:30:02;;;;;;;0.38;0.38;;;;;;;-0.35;89.00;98579.97;5065153;28;20025;-69
2021/01/13 02:32:34;;;;;;;0.30;0.30;;;;;;;-0.34;89.22;98585.94;5064853;28;20021;-70
2021/01/13 02:35:29;;;;;;;0.40;0.40;;;;;;;-0.36;89.01;98585.94;5066239;28;20037;-70
2021/01/13 02:38:08;;;;;;;0.40;0.40;;;;;;;-0.43;89.13;98602.88;5052086;28;20029;-71
2021/01/13 02:40:34;;;;;;;0.82;0.82;;;;;;;-0.45;89.10;98603.72;5081956;28;20021;-71
2021/01/13 02:43:08;;;;;;;0.40;0.40;;;;;;;-0.51;89.03;98607.94;5066191;28;20032;-70
2021/01/13 02:45:39;;;;;;;0.40;0.40;;;;;;;-0.53;88.89;98609.59;5081340;28;20070;-70
2021/01/13 02:48:11;;;;;;;0.32;0.32;;;;;;;-0.51;88.92;98613.03;5065963;28;20119;-71
2021/01/13 02:50:40;;;;;;;0.32;0.32;;;;;;;-0.55;88.69;98616.41;5081765;28;20017;-70
2021/01/13 02:53:14;;;;;;;0.30;0.30;;;;;;;-0.60;88.64;98619.75;5066221;28;20028;-71
2021/01/13 02:55:46;;;;;;;0.32;0.32;;;;;;;-0.67;88.65;98626.50;5080919;28;20056;-70
2021/01/13 02:58:12;;;;;;;0.30;0.30;;;;;;;-0.76;88.32;98617.94;5081532;28;20035;-70
2021/01/13 03:00:37;;;;;;;0.40;0.40;;;;;;;-0.78;88.61;98618.75;5065895;28;20029;-71
2021/01/13 03:03:04;;;;;;;0.40;0.40;;;;;;;-0.81;88.30;98624.69;5080985;28;20048;-71
2021/01/13 03:05:29;;;;;;;0.40;0.40;;;;;;;-0.83;88.35;98626.34;5065651;28;20024;-71
2021/01/13 03:07:56;;;;;;;0.40;0.40;;;;;;;-0.92;88.23;98616.09;5065832;28;20070;-71
2021/01/13 03:10:25;;;;;;;0.40;0.40;;;;;;;-0.99;88.15;98615.16;5065778;28;20017;-70
2021/01/13 03:12:57;;;;;;;0.40;0.40;;;;;;;-0.92;88.27;98626.28;5081248;28;20017;-70
2021/01/13 03:15:26;;;;;;;0.40;0.40;;;;;;;-0.93;88.33;98629.66;5080864;28;20421;-70
2021/01/13 03:18:06;;;;;;;0.40;0.40;;;;;;;-0.94;88.38;98636.44;5065423;28;20028;-70
2021/01/13 03:20:55;;;;;;;0.40;0.40;;;;;;;-1.03;88.30;98623.63;5064383;28;20135;-69
2021/01/13 03:23:34;;;;;;;0.40;0.40;;;;;;;-0.97;88.37;98630.47;5065511;28;20032;-70
2021/01/13 03:26:05;;;;;;;0.40;0.40;;;;;;;-0.97;88.53;98638.09;5064244;28;20075;-70
2021/01/13 03:28:36;;;;;;;0.40;0.40;;;;;;;-1.02;88.44;98623.63;5065567;28;20028;-71
2021/01/13 03:31:03;;;;;;;0.40;0.40;;;;;;;-0.96;88.49;98640.69;5080749;28;20028;-71
2021/01/13 03:33:46;;;;;;;0.40;0.40;;;;;;;-1.05;88.60;98617.66;5063777;28;20039;-71
2021/01/13 03:36:38;;;;;;;0.40;0.40;;;;;;;-0.94;88.64;98633.06;5065239;28;20029;-70
2021/01/13 03:39:06;;;;;;;0.50;0.50;;;;;;;-0.97;88.52;98626.22;5043314;28;20036;-70
2021/01/13 03:41:53;;;;;;;0.32;0.32;;;;;;;-0.94;88.82;98631.34;5063168;28;20089;-70
2021/01/13 03:44:40;;;;;;;0.40;0.40;;;;;;;-0.90;88.68;98627.16;5080674;28;20436;-71
2021/01/13 03:47:30;;;;;;;0.40;0.40;;;;;;;-0.91;88.50;98628.84;5080122;28;20021;-70
2021/01/13 03:50:09;;;;;;;0.40;0.40;;;;;;;-1.00;88.30;98627.06;5080613;28;20025;-71
2021/01/13 03:52:41;;;;;;;0.40;0.40;;;;;;;-1.07;88.42;98614.25;5065052;28;20025;-70
2021/01/13 03:55:07;;;;;;;0.45;0.45;;;;;;;-1.03;88.52;98621.06;5064713;28;20094;-71
2021/01/13 03:57:57;;;;;;;0.40;0.40;;;;;;;-0.97;88.64;98630.47;5064998;28;20432;-70
2021/01/13 04:00:40;;;;;;;0.40;0.40;;;;;;;-0.96;88.65;98630.50;5064984;28;20031;-71
2021/01/13 04:03:45;;;;;;;0.40;0.40;;;;;;;-1.27;88.67;98575.03;5079922;28;20102;-71
2021/01/13 04:06:11;;;;;;;0.30;0.30;;;;;;;-0.90;88.78;98637.34;5058570;28;20056;-71
2021/01/13 04:08:45;;;;;;;0.40;0.40;;;;;;;-0.91;88.64;98628.00;5064723;28;20025;-71
2021/01/13 04:11:15;;;;;;;0.40;0.40;;;;;;;-0.86;88.70;98640.78;5063221;28;20088;-71
2021/01/13 04:13:47;;;;;;;0.30;0.30;;;;;;;-0.87;88.60;98650.09;5063301;28;20052;-71
2021/01/13 04:16:15;;;;;;;0.57;0.57;;;;;;;-0.86;88.47;98649.25;5079759;28;20465;-69
2021/01/13 04:18:44;;;;;;;0.40;0.40;;;;;;;-1.00;88.44;98637.25;5064125;28;20650;-69
2021/01/13 04:21:12;;;;;;;0.30;0.30;;;;;;;-0.86;88.48;98656.91;5079745;28;20104;-68
2021/01/13 04:23:38;;;;;;;0.40;0.40;;;;;;;-0.83;88.45;98661.19;5063045;28;20035;-69
2021/01/13 04:26:04;;;;;;;0.40;0.40;;;;;;;-0.86;88.14;98659.44;5064305;28;20043;-70
2021/01/13 04:28:30;;;;;;;0.40;0.40;;;;;;;-0.88;88.16;98659.44;5063086;28;20021;-69
2021/01/13 04:30:56;;;;;;;0.40;0.40;;;;;;;-0.88;88.16;98664.53;5064230;28;20036;-68
2021/01/13 04:33:23;;;;;;;0.40;0.40;;;;;;;-0.95;88.05;98659.38;5062479;28;20063;-69
2021/01/13 04:35:49;;;;;;;0.40;0.40;;;;;;;-1.11;88.17;98641.38;5064030;28;20025;-69
2021/01/13 04:38:39;;;;;;;0.30;0.30;;;;;;;-0.93;88.21;98667.88;5064404;28;20025;-70
2021/01/13 04:41:08;;;;;;;0.30;0.30;;;;;;;-1.01;88.19;98671.19;5062758;28;20029;-69
2021/01/13 04:43:55;;;;;;;0.40;0.40;;;;;;;-1.16;88.15;98658.31;5064174;28;20023;-69
2021/01/13 04:46:29;;;;;;;0.40;0.40;;;;;;;-1.17;88.04;98670.19;5062437;28;20064;-69
2021/01/13 04:49:01;;;;;;;0.40;0.40;;;;;;;-1.24;88.16;98668.41;5063524;28;20108;-70
2021/01/13 04:51:26;;;;;;;0.50;0.50;;;;;;;-1.35;88.27;98657.22;5064160;28;20287;-69
2021/01/13 04:53:55;;;;;;;0.30;0.30;;;;;;;-1.40;88.30;98654.63;5062779;28;20033;-69
2021/01/13 04:56:24;;;;;;;0.40;0.40;;;;;;;-1.26;88.37;98677.72;5062346;28;20025;-69
2021/01/13 04:59:26;;;;;;;0.30;0.30;;;;;;;-1.30;88.25;98679.38;5063598;28;20505;-71
2021/01/13 05:02:09;;;;;;;0.50;0.50;;;;;;;-1.70;88.36;98617.81;5063865;28;20035;-69
2021/01/13 05:04:53;;;;;;;0.40;0.40;;;;;;;-1.27;88.33;98692.16;5063202;28;20025;-68
2021/01/13 05:07:33;;;;;;;0.40;0.40;;;;;;;-1.28;88.19;98689.59;5063543;28;20040;-69
2021/01/13 05:10:16;;;;;;;0.40;0.40;;;;;;;-1.39;88.15;98684.38;5062121;28;20060;-69
2021/01/13 05:12:55;;;;;;;0.40;0.40;;;;;;;-1.32;88.23;98693.78;5063514;28;20461;-70
2021/01/13 05:15:24;;;;;;;0.40;0.40;;;;;;;-1.40;88.36;98680.09;5078861;28;20092;-71
2021/01/13 05:18:00;;;;;;;0.40;0.40;;;;;;;-1.25;88.33;98700.63;5063349;28;20104;-71
2021/01/13 05:20:27;;;;;;;0.40;0.40;;;;;;;-1.25;88.41;98698.09;5063309;28;20020;-71
2021/01/13 05:22:54;;;;;;;0.40;0.40;;;;;;;-1.28;88.27;98685.31;5063388;28;20162;-71
2021/01/13 05:25:46;;;;;;;0.40;0.40;;;;;;;-1.17;88.30;98702.44;5063115;28;20053;-69
2021/01/13 05:28:21;;;;;;;0.50;0.50;;;;;;;-1.16;88.26;98710.09;5078553;28;20025;-70
2021/01/13 05:30:49;;;;;;;0.40;0.40;;;;;;;-1.17;88.22;98700.75;5063475;28;20284;-71
2021/01/13 05:33:17;;;;;;;0.40;0.40;;;;;;;-1.21;87.93;98703.22;5062955;28;20024;-69
2021/01/13 05:35:48;;;;;;;0.40;0.40;;;;;;;-1.24;88.01;98704.06;5063105;28;20025;-69
2021/01/13 05:38:16;;;;;;;0.50;0.50;;;;;;;-1.28;87.97;98690.41;5063219;28;20047;-71
2021/01/13 05:40:44;;;;;;;0.40;0.40;;;;;;;-1.22;87.83;98710.03;5061033;28;20017;-71
2021/01/13 05:43:09;;;;;;;0.40;0.40;;;;;;;-1.35;87.60;98692.88;5062559;28;20504;-72
2021/01/13 05:45:38;;;;;;;0.40;0.40;;;;;;;-1.40;87.46;98710.66;5063168;28;20124;-72
2021/01/13 05:48:13;;;;;;;0.40;0.40;;;;;;;-1.56;87.34;98701.94;5062846;28;20024;-72
2021/01/13 05:50:39;;;;;;;0.40;0.40;;;;;;;-1.66;87.54;98717.09;5063178;28;20052;-70
2021/01/13 05:53:06;;;;;;;0.45;0.45;;;;;;;-1.67;87.52;98717.09;5061723;28;20029;-70
2021/01/13 05:55:31;;;;;;;0.40;0.40;;;;;;;-2.02;87.50;98672.50;5062786;28;20079;-71
2021/01/13 05:57:59;;;;;;;0.40;0.40;;;;;;;-1.84;87.72;98720.25;5063232;28;20025;-70
2021/01/13 06:00:30;;;;;;;0.35;0.35;;;;;;;-1.95;87.75;98714.16;5078721;28;20025;-70
2021/01/13 06:02:58;;;;;;;0.50;0.50;;;;;;;-2.07;87.58;98710.59;5063074;28;20021;-71
2021/01/13 06:05:32;;;;;;;0.40;0.40;;;;;;;-2.20;87.79;98701.91;5065049;28;20017;-71
2021/01/13 06:08:03;;;;;;;0.40;0.40;;;;;;;-2.13;87.76;98723.19;5067329;28;20501;-70
2021/01/13 06:10:36;;;;;;;0.40;0.40;;;;;;;-2.17;87.89;98726.53;5067024;28;20029;-72
2021/01/13 06:13:06;;;;;;;0.43;0.43;;;;;;;-2.21;87.87;98719.69;5067125;28;20017;-73
2021/01/13 06:15:33;;;;;;;0.40;0.40;;;;;;;-2.24;88.01;98730.66;5065268;28;20024;-73
2021/01/13 06:17:59;;;;;;;0.40;0.40;;;;;;;-2.39;87.95;98710.91;5082017;28;20218;-74
2021/01/13 06:20:30;;;;;;;0.40;0.40;;;;;;;-2.31;87.84;98734.78;5066740;28;20100;-74
2021/01/13 06:22:59;;;;;;;0.40;0.40;;;;;;;-2.35;88.08;98743.19;5082427;28;20120;-74
2021/01/13 06:25:29;;;;;;;0.40;0.40;;;;;;;-2.41;88.00;98733.75;5082357;28;20032;-67
2021/01/13 06:27:57;;;;;;;0.35;0.35;;;;;;;-2.35;88.13;98755.91;5067022;28;20600;-72
2021/01/13 06:30:42;;;;;;;0.40;0.40;;;;;;;-2.36;88.19;98754.19;5067068;28;20049;-73
2021/01/13 06:33:10;;;;;;;0.40;0.40;;;;;;;-2.48;88.16;98742.13;5081891;28;20021;-74
2021/01/13 06:35:41;;;;;;;0.40;0.40;;;;;;;-2.42;88.04;98756.63;5066778;28;20054;-73
2021/01/13 06:38:21;;;;;;;0.50;0.50;;;;;;;-2.47;88.03;98758.22;5067005;28;20044;-72
2021/01/13 06:41:00;;;;;;;0.40;0.40;;;;;;;-2.50;88.12;98764.97;5066639;28;20056;-66
2021/01/13 06:43:25;;;;;;;0.40;0.40;;;;;;;-2.50;88.04;98772.59;5066857;28;20033;-70
2021/01/13 06:45:51;;;;;;;0.43;0.43;;;;;;;-2.51;88.11;98775.13;5066362;28;20036;-71
2021/01/13 06:48:26;;;;;;;0.40;0.40;;;;;;;-2.58;87.96;98778.34;5066274;28;20040;-71
2021/01/13 06:50:58;;;;;;;0.40;0.40;;;;;;;-2.69;88.05;98775.63;5081979;28;20017;-71
2021/01/13 06:53:32;;;;;;;0.43;0.43;;;;;;;-2.62;88.21;98790.16;5081748;28;20033;-70
2021/01/13 06:56:00;;;;;;;0.40;0.40;;;;;;;-2.63;88.44;98793.50;5081611;28;20041;-71
2021/01/13 06:58:27;;;;;;;0.40;0.40;;;;;;;-2.95;88.70;98751.44;5066691;28;20075;-71
2021/01/13 07:01:01;;;;;;;0.40;0.40;;;;;;;-2.65;88.46;98795.19;5066810;28;20021;-71
2021/01/13 07:03:31;;;;;;;0.40;0.40;;;;;;;-2.68;88.50;98790.03;5066389;28;20024;-71
2021/01/13 07:06:10;;;;;;;0.40;0.40;;;;;;;-2.74;88.63;98773.00;5082115;28;20025;-72
2021/01/13 07:08:36;;;;;;;0.40;0.40;;;;;;;-2.57;88.66;98798.72;5067589;28;20021;-71
2021/01/13 07:11:07;;;;;;;0.40;0.40;;;;;;;-2.69;88.59;98781.56;5066250;28;20394;-72
2021/01/13 07:13:35;;;;;;;0.47;0.47;;;;;;;-2.55;88.73;98808.91;5067846;28;20538;-70
2021/01/13 07:16:02;;;;;;;0.40;0.40;;;;;;;-2.56;88.69;98810.59;5070416;28;20029;-72
2021/01/13 07:18:28;;;;;;;0.40;0.40;;;;;;;-2.53;88.72;98823.38;5071495;28;20041;-71
2021/01/13 07:20:55;;;;;;;0.40;0.40;;;;;;;-2.56;88.65;98820.78;5064726;28;20032;-72
2021/01/13 07:23:21;;;;;;;0.40;0.40;;;;;;;-2.76;88.49;98807.66;5066056;28;20020;-71
2021/01/13 07:25:48;;;;;;;0.40;0.40;;;;;;;-2.62;88.39;98836.75;5066023;28;20073;-72
2021/01/13 07:28:17;;;;;;;0.40;0.40;;;;;;;-2.98;88.34;98789.47;5066189;28;20029;-72
2021/01/13 07:30:44;;;;;;;0.40;0.40;;;;;;;-2.67;88.56;98832.41;5065745;28;20021;-72
2021/01/13 07:33:14;;;;;;;0.40;0.40;;;;;;;-2.79;88.48;98826.25;5081121;28;20021;-72
2021/01/13 07:35:45;;;;;;;0.40;0.40;;;;;;;-2.71;88.58;98840.78;5065864;28;20092;-72
2021/01/13 07:38:17;;;;;;;0.40;0.40;;;;;;;-2.81;88.50;98832.97;5063895;28;20047;-72
2021/01/13 07:41:03;;;;;;;0.40;0.40;;;;;;;-2.75;88.78;98857.66;5064488;28;20528;-72
2021/01/13 07:44:04;;;;;;;0.40;0.40;;;;;;;-2.79;88.50;98856.72;5065633;28;20549;-73
2021/01/13 07:46:31;;;;;;;0.40;0.40;;;;;;;-2.83;88.46;98866.78;5062979;28;20052;-72
2021/01/13 07:49:16;;;;;;;0.40;0.40;;;;;;;-2.84;88.65;98865.09;5080475;28;20029;-71
2021/01/13 07:52:07;;;;;;;0.40;0.40;;;;;;;-2.84;88.70;98873.56;5065377;28;20027;-71
2021/01/13 07:54:35;;;;;;;0.40;0.40;;;;;;;-3.06;88.54;98839.22;5080449;28;20060;-72
2021/01/13 07:57:05;;;;;;;0.40;0.40;;;;;;;-2.86;88.60;98862.53;5064983;28;20021;-72
2021/01/13 07:59:42;;;;;;;0.43;0.43;;;;;;;-2.95;88.69;98858.09;5080817;28;20045;-72
2021/01/13 08:02:29;;;;;;;0.40;0.40;;;;;;;-2.80;88.83;98884.63;5063854;28;20049;-72
2021/01/13 08:05:16;;;;;;;0.40;0.40;;;;;;;-2.78;88.93;98885.53;5064767;28;20032;-71
2021/01/13 08:07:42;;;;;;;0.40;0.40;;;;;;;-2.81;88.85;98876.16;5065202;28;20047;-71
2021/01/13 08:10:09;;;;;;;0.40;0.40;;;;;;;-2.80;89.07;98885.50;5064875;28;20040;-71
2021/01/13 08:12:53;;;;;;;0.50;0.50;;;;;;;-2.72;89.03;98910.22;5065179;28;20024;-72
2021/01/13 08:15:50;;;;;;;0.40;0.40;;;;;;;-3.10;88.93;98858.63;5064812;28;20252;-71
2021/01/13 08:18:37;;;;;;;0.40;0.40;;;;;;;-2.80;89.13;98908.38;5064527;28;20081;-71
2021/01/13 08:21:10;;;;;;;0.40;0.40;;;;;;;-2.72;89.32;98913.63;5080173;28;20096;-72
2021/01/13 08:23:41;;;;;;;0.50;0.50;;;;;;;-2.76;89.41;98905.06;5064949;28;20017;-72
2021/01/13 08:26:08;;;;;;;0.40;0.40;;;;;;;-2.73;89.43;98904.25;5064579;28;20029;-71
2021/01/13 08:28:47;;;;;;;0.40;0.40;;;;;;;-2.65;89.30;98917.16;5064595;28;20075;-70
2021/01/13 08:31:21;;;;;;;0.80;0.80;;;;;;;-2.79;89.33;98902.47;5064608;28;20090;-72
2021/01/13 08:33:50;;;;;;;0.40;0.40;;;;;;;-2.67;89.50;98934.03;5064499;28;20049;-71
2021/01/13 08:36:16;;;;;;;0.40;0.40;;;;;;;-2.80;89.47;98912.59;5062608;28;20020;-72
2021/01/13 08:39:07;;;;;;;0.40;0.40;;;;;;;-2.65;89.50;98937.47;5063414;28;20013;-72
2021/01/13 08:41:34;;;;;;;0.50;0.50;;;;;;;-2.65;89.62;98953.56;5064360;28;20276;-71
2021/01/13 08:44:06;;;;;;;0.32;0.32;;;;;;;-2.68;89.68;98947.53;5064379;28;20033;-71
2021/01/13 08:46:56;;;;;;;0.50;0.50;;;;;;;-2.83;89.57;98927.75;5079481;28;20508;-72
2021/01/13 08:49:27;;;;;;;0.43;0.43;;;;;;;-2.69;89.82;98961.09;5079211;28;20025;-72
2021/01/13 08:52:08;;;;;;;0.47;0.47;;;;;;;-2.63;89.82;98958.66;5064111;28;20025;-74
2021/01/13 08:54:34;;;;;;;0.50;0.50;;;;;;;-2.70;89.76;98959.38;5079213;28;20033;-74
2021/01/13 08:57:01;;;;;;;0.40;0.40;;;;;;;-2.61;89.82;98964.66;5063445;28;20100;-74
2021/01/13 08:59:43;;;;;;;0.40;0.40;;;;;;;-2.80;89.95;98941.41;5062782;28;20520;-74
2021/01/13 09:02:14;;;;;;;0.40;0.40;;;;;;;-2.53;90.01;98977.53;5079661;28;20092;-74
2021/01/13 09:04:48;;;;;;;0.40;0.40;;;;;;;-2.50;90.04;98975.03;5063641;28;20036;-75
2021/01/13 09:07:16;;;;;;;0.40;0.40;;;;;;;-2.58;89.89;98969.81;5063902;28;20040;-74
2021/01/13 09:09:59;;;;;;;0.40;0.40;;;;;;;-2.44;90.15;98987.00;5063930;28;20442;-73
2021/01/13 09:12:41;;;;;;;0.38;0.38;;;;;;;-2.38;90.21;98994.81;5064050;28;20048;-73
2021/01/13 09:15:06;;;;;;;0.50;0.50;;;;;;;-2.33;90.17;99010.16;5063913;28;20028;-73
2021/01/13 09:17:33;;;;;;;0.40;0.40;;;;;;;-2.31;90.30;99004.25;5063762;28;20021;-74
2021/01/13 09:20:00;;;;;;;0.40;0.40;;;;;;;-2.33;90.19;98995.72;5063818;28;20044;-73
2021/01/13 09:22:42;;;;;;;0.40;0.40;;;;;;;-2.52;90.29;98967.38;5063948;28;20063;-73
2021/01/13 09:25:25;;;;;;;0.50;0.50;;;;;;;-2.21;90.24;99020.56;5079152;28;20033;-75
2021/01/13 09:28:00;;;;;;;0.50;0.50;;;;;;;-2.20;90.24;99022.28;5063731;28;20272;-74
2021/01/13 09:30:41;;;;;;;0.40;0.40;;;;;;;-2.20;90.15;99027.38;5078988;28;20032;-73
2021/01/13 09:33:15;;;;;;;0.40;0.40;;;;;;;-2.18;90.33;99027.38;5078666;28;20055;-73
2021/01/13 09:35:46;;;;;;;0.40;0.40;;;;;;;-2.16;90.38;99036.78;5063542;28;20028;-73
2021/01/13 09:38:26;;;;;;;0.35;0.35;;;;;;;-2.13;90.42;99034.31;5063030;28;20060;-73
2021/01/13 09:40:57;;;;;;;0.40;0.40;;;;;;;-2.04;90.45;99045.47;5062604;28;20028;-75
2021/01/13 09:43:24;;;;;;;0.50;0.50;;;;;;;-1.97;90.58;99046.47;5078314;28;20043;-73
2021/01/13 09:45:54;;;;;;;0.40;0.40;;;;;;;-2.07;90.62;99028.47;5063465;28;20117;-74
2021/01/13 09:48:20;;;;;;;0.40;0.40;;;;;;;-2.08;90.56;99021.69;5063062;28;20025;-73
2021/01/13 09:50:56;;;;;;;0.40;0.40;;;;;;;-1.83;90.56;99055.25;5078894;28;20036;-72
2021/01/13 09:53:29;;;;;;;0.40;0.40;;;;;;;-1.95;90.66;99021.94;5063416;28;20055;-73
2021/01/13 09:56:02;;;;;;;0.40;0.40;;;;;;;-1.71;90.70;99053.78;5063130;28;20044;-73
2021/01/13 09:58:38;;;;;;;0.32;0.32;;;;;;;-1.66;90.56;99059.81;5045833;28;20256;-75
2021/01/13 10:01:29;;;;;;;0.40;0.40;;;;;;;-1.67;90.59;99056.41;5063331;28;20033;-72
2021/01/13 10:03:56;;;;;;;0.40;0.40;;;;;;;-1.64;90.58;99069.19;5057904;28;20041;-75
2021/01/13 10:06:29;;;;;;;0.35;0.35;;;;;;;-1.83;90.62;99029.81;5061641;28;20025;-76
2021/01/13 10:08:58;;;;;;;0.40;0.40;;;;;;;-1.54;90.71;99079.53;5063251;28;20078;-75
2021/01/13 10:11:28;;;;;;;0.40;0.40;;;;;;;-1.46;90.79;99087.31;5063335;28;20125;-74
2021/01/13 10:13:56;;;;;;;0.40;0.40;;;;;;;-1.38;90.86;99090.88;5063264;28;20045;-73
2021/01/13 10:16:21;;;;;;;0.30;0.30;;;;;;;-1.42;90.77;99074.69;5063028;28;20021;-74
2021/01/13 10:18:52;;;;;;;0.40;0.40;;;;;;;-1.26;90.83;99105.50;5062634;28;20037;-75
2021/01/13 10:21:18;;;;;;;0.30;0.30;;;;;;;-1.27;90.88;99108.91;5063074;28;20029;-75
2021/01/13 10:23:45;;;;;;;0.30;0.30;;;;;;;-1.26;90.82;99095.34;5061694;28;20052;-74
2021/01/13 10:26:11;;;;;;;0.40;0.40;;;;;;;-1.12;90.70;99105.78;5062817;28;20075;-76
2021/01/13 10:28:37;;;;;;;0.40;0.40;;;;;;;-1.16;90.86;99097.22;5062962;28;20013;-75
2021/01/13 10:31:04;;;;;;;0.40;0.40;;;;;;;-1.08;90.82;99112.66;5061796;28;20328;-75
2021/01/13 10:33:52;;;;;;;0.40;0.40;;;;;;;-1.06;90.85;99116.09;5062586;28;20021;-74
2021/01/13 10:36:32;;;;;;;0.32;0.32;;;;;;;-1.15;90.91;99110.84;5062764;28;20025;-75
2021/01/13 10:39:09;;;;;;;0.32;0.32;;;;;;;-1.05;91.00;99119.47;5078329;28;20055;-75
2021/01/13 10:41:42;;;;;;;0.30;0.30;;;;;;;-1.05;90.84;99122.91;5061799;28;20025;-72
2021/01/13 10:44:12;;;;;;;0.40;0.40;;;;;;;-1.02;90.89;99145.88;5061608;28;20404;-73
2021/01/13 10:46:45;;;;;;;0.35;0.35;;;;;;;-1.07;90.94;99144.94;5062698;28;20025;-74
2021/01/13 10:49:25;;;;;;;0.40;0.40;;;;;;;-1.00;90.86;99159.50;5062374;28;20535;-74
2021/01/13 10:51:56;;;;;;;0.30;0.30;;;;;;;-1.17;90.92;99126.09;5066778;28;20137;-74
2021/01/13 10:54:29;;;;;;;0.40;0.40;;;;;;;-1.00;90.84;99167.16;5066280;28;20045;-74
2021/01/13 10:57:03;;;;;;;0.40;0.40;;;;;;;-0.98;91.03;99151.91;5066522;28;20021;-70
2021/01/13 10:59:29;;;;;;;0.40;0.40;;;;;;;-0.97;90.98;99162.94;5066545;28;20017;-74
2021/01/13 11:02:01;;;;;;;0.40;0.40;;;;;;;-1.05;90.84;99152.59;5064988;28;20462;-72
2021/01/13 11:04:32;;;;;;;0.40;0.40;;;;;;;-1.03;90.86;99161.13;5081490;28;20021;-76
2021/01/13 11:07:00;;;;;;;0.40;0.40;;;;;;;-1.01;90.88;99162.03;5081690;28;20028;-75
2021/01/13 11:09:27;;;;;;;0.30;0.30;;;;;;;-0.89;90.97;99191.97;5066461;28;20028;-75
2021/01/13 11:11:54;;;;;;;0.40;0.40;;;;;;;-0.89;90.96;99181.75;5066318;28;20024;-75
2021/01/13 11:14:28;;;;;;;0.30;0.30;;;;;;;-0.88;90.96;99188.59;5066163;28;20025;-74
2021/01/13 11:17:04;;;;;;;0.40;0.40;;;;;;;-0.87;90.88;99177.56;5081293;28;20488;-75
2021/01/13 11:19:30;;;;;;;0.30;0.30;;;;;;;-0.92;90.96;99179.16;5064511;28;20029;-73
2021/01/13 11:21:56;;;;;;;0.30;0.30;;;;;;;-0.86;91.04;99180.97;5064676;28;20017;-74
2021/01/13 11:24:37;;;;;;;0.40;0.40;;;;;;;-0.81;91.04;99202.28;5066095;28;20423;-74
2021/01/13 11:27:08;;;;;;;0.40;0.40;;;;;;;-0.80;90.88;99217.59;5064485;28;20028;-67
2021/01/13 11:29:36;;;;;;;0.40;0.40;;;;;;;-0.84;91.09;99200.56;5065822;28;20417;-68
2021/01/13 11:32:03;;;;;;;0.30;0.30;;;;;;;-0.84;91.07;99205.66;5065992;28;20050;-70
2021/01/13 11:34:29;;;;;;;0.40;0.40;;;;;;;-0.78;90.98;99210.84;5065375;28;20033;-70
2021/01/13 11:37:08;;;;;;;0.40;0.40;;;;;;;-0.74;90.94;99232.19;5065286;28;20108;-71
2021/01/13 11:39:41;;;;;;;0.40;0.40;;;;;;;-0.87;90.87;99210.69;5065612;28;20021;-69
2021/01/13 11:42:21;;;;;;;0.30;0.30;;;;;;;-0.79;90.81;99238.88;5065946;28;20044;-71
2021/01/13 11:45:12;;;;;;;0.40;0.40;;;;;;;-0.84;90.60;99236.22;5065624;28;20027;-73
2021/01/13 11:47:42;;;;;;;0.30;0.30;;;;;;;-0.92;90.79;99245.41;5064186;28;20321;-73
2021/01/13 11:50:16;;;;;;;0.55;0.55;;;;;;;-0.96;90.73;99224.13;5065293;28;20029;-73
2021/01/13 11:52:45;;;;;;;0.40;0.40;;;;;;;-0.84;90.87;99251.53;5065434;28;20025;-74
2021/01/13 11:55:12;;;;;;;0.40;0.40;;;;;;;-0.91;90.67;99230.16;5080430;28;20141;-73
2021/01/13 11:57:37;;;;;;;0.40;0.40;;;;;;;-0.97;90.63;99234.25;5065102;28;20021;-71